• Join FlightAware (Why Join?)
  • Login
  • US Flag 
12:35PM EDT


 

Airport Tracker/Info


-or-


 

Live Flight TrackerFlight Track Log ✈ N604DF ✈ 16-Jul-2013 ✈ KDAL - KIAD

Flight Track Log - Related Links

Times and Time Zones

All times are in EDT time to prevent confusion due to time zone crossing. See the N604DF flight status page for this flight to view local times or setup timezone preferences in your user account.

Time Position Orientation Groundspeed Altitude Reporting Facility
EDT Latitude Longitude Course Direction KTS MPH feet Rate Location/Type
01:41PM 32.8070 -96.8120 135° Southeast 229 264 2,600  Level FlightAware
01:42PM 32.7880 -96.7810 126° Southeast 239 275 4,400 3,600 Climbing FlightAware
01:42PM 32.7860 -96.7670 100° East 246 283 5,100 3,420 Climbing FlightAware
01:42PM 32.7960 -96.7290 73° East 261 300 6,700 3,240 Climbing FlightAware
01:43PM 32.8050 -96.7070 64° Northeast 271 312 7,600 2,760 Climbing FlightAware
01:43PM 32.8220 -96.6680 63° Northeast 288 331 8,800 2,520 Climbing FlightAware
01:44PM 32.8370 -96.6340 62° Northeast 298 343 9,800 2,580 Climbing FlightAware
01:44PM 32.8620 -96.5770 62° Northeast 311 358 11,500 2,280 Climbing FlightAware
01:45PM 32.8940 -96.5050 62° Northeast 339 390 13,000 1,560 Climbing FlightAware
01:46PM 32.9280 -96.4280 62° Northeast 373 429 13,900 1,440 Climbing FlightAware
01:46PM 32.9630 -96.3460 63° Northeast 388 447 15,100 1,800 Climbing FlightAware
01:47PM 32.9790 -96.2620 77° East 391 450 16,500 1,980 Climbing FlightAware
01:48PM 32.9910 -96.1780 80° East 396 456 17,800 1,800 Climbing FlightAware
01:48PM 33.0020 -96.0980 81° East 403 464 18,800 1,560 Climbing FlightAware
01:49PM 33.0160 -95.9970 81° East 413 475 20,000 1,500 Climbing FlightAware
01:50PM 33.0320 -95.8840 80° East 419 482 21,200 1,200 Climbing FlightAware
01:51PM 33.0470 -95.7740 81° East 432 497 22,000 1,020 Climbing FlightAware
01:51PM 33.0600 -95.6770 81° East 441 507 22,700 960 Climbing FlightAware
01:52PM 33.0730 -95.5810 81° East 449 517 23,300 900 Climbing FlightAware
01:53PM 33.0970 -95.4900 73° East 454 522 23,900 1,200 Climbing FlightAware
01:54PM 33.1300 -95.3810 70° East 447 514 25,100 1,260 Climbing FlightAware
01:54PM 33.1652 -95.2635 70° East 448 516 26,000 1,020 Climbing FlightAware ADS-B
01:55PM 33.1894 -95.1823 70° East 450 518 26,600 960 Climbing FlightAware ADS-B
01:56PM 33.2153 -95.0954 70° East 451 519 27,200 780 Climbing FlightAware ADS-B
01:56PM 33.2473 -94.9875 70° East 456 525 27,700 540 Climbing FlightAware ADS-B
01:57PM 33.2725 -94.9026 70° East 460 529 28,000 480 Climbing FlightAware ADS-B
01:58PM 33.3060 -94.7880 71° East 464 534 28,400 480 Climbing FlightAware
01:58PM 33.3380 -94.6820 70° East 468 539 28,800 480 Climbing FlightAware
01:59PM 33.3630 -94.5960 71° East 470 541 29,100 120 Climbing FlightAware
02:00PM 33.4040 -94.4610 70° East 470 541 29,100  Level FlightAware
02:01PM 33.4270 -94.3840 70° East 470 541 29,100  Level FlightAware
02:02PM 33.4570 -94.2840 70° East 470 541 29,100  Level FlightAware
02:02PM 33.4800 -94.2090 70° East 470 541 29,100  Level FlightAware
02:03PM 33.5100 -94.1090 70° East 470 541 29,100 1,200 Level FlightAware
02:04PM 33.5975 -93.8697 70° East 475 547 31,500 1,320 Climbing Fort Worth Center
02:05PM 33.6539 -93.7228 65° Northeast 475 547 32,000 480 Climbing Fort Worth Center
02:06PM 33.7117 -93.5681 66° East 475 547 32,500 480 Climbing Fort Worth Center
02:08PM 33.7881 -93.3689 65° Northeast 467 537 33,200 420 Climbing Memphis Center
02:09PM 33.8433 -93.2283 65° Northeast 467 537 33,600 420 Climbing Memphis Center
02:10PM 33.8967 -93.0875 65° Northeast 462 532 34,100 480 Climbing Memphis Center
02:11PM 33.9519 -92.9439 65° Northeast 457 526 34,600 420 Climbing Memphis Center
02:12PM 34.0028 -92.8003 67° East 457 526 35,000 180 Climbing Memphis Center
02:13PM 34.0578 -92.6564 65° Northeast 457 526 35,000  Level Memphis Center
02:14PM 34.1083 -92.5097 67° East 457 526 35,000  Level Memphis Center
02:15PM 34.1631 -92.3628 66° East 467 537 35,000  Level Memphis Center
02:16PM 34.2172 -92.2183 66° East 467 537 35,000  Level Memphis Center
02:17PM 34.2694 -92.0714 67° East 472 543 35,000  Level Memphis Center
02:18PM 34.3236 -91.9264 66° East 472 543 35,000  Level Memphis Center
02:19PM 34.3797 -91.7764 66° East 472 543 35,000  Level Memphis Center
02:20PM 34.4269 -91.6489 66° East 466 536 35,000  Level Memphis Center
02:21PM 34.4806 -91.5061 65° Northeast 460 529 35,000  Level Memphis Center
02:22PM 34.5319 -91.3631 66° East 455 524 35,000  Level Memphis Center
02:23PM 34.5808 -91.2172 68° East 455 524 35,000  Level Memphis Center
02:24PM 34.6361 -91.0689 66° East 460 529 35,000  Level Memphis Center
02:25PM 34.6933 -90.9103 66° East 460 529 35,000  Level Memphis Center
02:26PM 34.7458 -90.7614 67° East 467 537 35,000  Level Memphis Center
02:27PM 34.7964 -90.6175 67° East 467 537 35,000  Level Memphis Center
02:28PM 34.8486 -90.4711 66° East 467 537 35,000  Level Memphis Center
02:29PM 34.8989 -90.3242 67° East 462 532 35,000  Level Memphis Center
02:30PM 34.9531 -90.1772 66° East 462 532 35,000  Level Memphis Center
02:31PM 35.0047 -90.0300 67° East 462 532 35,000  Level Memphis Center
02:32PM 35.0522 -89.8981 66° East 462 532 35,000  Level Memphis Center
02:33PM 35.1058 -89.7481 66° East 468 539 35,000  Level Memphis Center
02:34PM 35.1553 -89.6028 67° East 473 544 35,000  Level Memphis Center
02:35PM 35.2106 -89.4422 67° East 468 539 35,000  Level Memphis Center
02:36PM 35.2594 -89.2992 67° East 458 527 35,000  Level Memphis Center
02:37PM 35.3103 -89.1586 66° East 458 527 35,000  Level Memphis Center
02:38PM 35.3608 -89.0103 67° East 458 527 35,000  Level Memphis Center
02:39PM 35.4072 -88.8694 68° East 453 521 35,000  Level Memphis Center
02:40PM 35.4514 -88.7411 67° East 453 521 35,000  Level Memphis Center
02:41PM 35.4997 -88.6000 67° East 453 521 35,000  Level Memphis Center
02:42PM 35.5517 -88.4533 66° East 453 521 35,000  Level Memphis Center
02:47PM 35.8200 -87.6530 66° East 456 525 35,000  Level FlightAware
02:48PM 35.8540 -87.5520 67° East 456 525 35,000  Level FlightAware
02:48PM 35.8920 -87.4360 68° East 455 524 35,000  Level FlightAware
02:49PM 35.9230 -87.3420 68° East 456 525 35,000  Level FlightAware
02:50PM 35.9550 -87.2440 68° East 456 525 35,000  Level FlightAware
02:50PM 35.9840 -87.1570 68° East 456 525 35,000  Level FlightAware
02:51PM 36.0180 -87.0520 68° East 456 525 35,000  Level FlightAware
02:52PM 36.0470 -86.9630 68° East 456 525 35,000  Level FlightAware
02:52PM 36.0770 -86.8690 68° East 456 525 35,000  Level FlightAware
02:53PM 36.1120 -86.7610 68° East 457 526 35,000  Level FlightAware
02:54PM 36.1530 -86.6710 61° Northeast 460 529 35,000  Level FlightAware
02:54PM 36.1750 -86.6247 60° Northeast 460 529 35,000  Level FlightAware ADS-B
02:55PM 36.2450 -86.4780 59° Northeast 461 531 35,000  Level FlightAware
02:55PM 36.2617 -86.4440 59° Northeast 461 531 35,000  Level FlightAware ADS-B
02:56PM 36.2940 -86.3760 59° Northeast 460 529 35,000  Level FlightAware
02:57PM 36.3441 -86.2715 59° Northeast 461 531 35,000  Level FlightAware ADS-B
02:57PM 36.3801 -86.1959 59° Northeast 462 532 35,000  Level FlightAware ADS-B
02:58PM 36.4249 -86.1017 59° Northeast 462 532 35,000  Level FlightAware ADS-B
02:59PM 36.4579 -86.0319 60° Northeast 462 532 35,000  Level FlightAware ADS-B
02:59PM 36.5110 -85.9200 59° Northeast 461 531 35,000  Level FlightAware
03:00PM 36.5570 -85.8230 59° Northeast 461 531 35,000  Level FlightAware
03:01PM 36.6109 -85.7069 60° Northeast 463 533 35,000  Level FlightAware ADS-B
03:01PM 36.6443 -85.6356 60° Northeast 463 533 35,000  Level FlightAware ADS-B
03:02PM 36.6774 -85.5647 60° Northeast 464 534 35,000  Level FlightAware ADS-B
03:03PM 36.7191 -85.4755 60° Northeast 462 532 35,000  Level FlightAware ADS-B
03:03PM 36.7522 -85.4042 60° Northeast 462 532 35,000  Level FlightAware ADS-B
03:04PM 36.8013 -85.2984 60° Northeast 461 531 35,000  Level FlightAware ADS-B
03:04PM 36.8330 -85.2300 60° Northeast 461 531 35,000  Level FlightAware
03:05PM 36.8678 -85.1545 60° Northeast 460 529 35,000  Level FlightAware ADS-B
03:05PM 36.9072 -85.0690 60° Northeast 460 529 35,000  Level FlightAware ADS-B
03:06PM 36.9402 -84.9972 60° Northeast 460 529 35,000  Level FlightAware ADS-B
03:07PM 36.9745 -84.9221 60° Northeast 460 529 35,000  Level FlightAware ADS-B
03:07PM 37.0066 -84.8520 60° Northeast 460 529 35,000  Level FlightAware ADS-B
03:08PM 37.0382 -84.7828 60° Northeast 460 529 35,000  Level FlightAware ADS-B
03:08PM 37.0725 -84.7075 60° Northeast 460 529 35,000  Level FlightAware ADS-B
03:09PM 37.1140 -84.6159 60° Northeast 460 529 35,000  Level FlightAware ADS-B
03:10PM 37.1890 -84.4503 60° Northeast 460 529 35,000  Level FlightAware ADS-B
03:11PM 37.2255 -84.3693 60° Northeast 459 528 35,000  Level FlightAware ADS-B
03:11PM 37.2609 -84.2906 61° Northeast 458 527 35,000  Level FlightAware ADS-B
03:12PM 37.3051 -84.1920 61° Northeast 458 527 35,000  Level FlightAware ADS-B
03:12PM 37.3367 -84.1214 61° Northeast 456 525 35,000  Level FlightAware ADS-B
03:13PM 37.3679 -84.0513 61° Northeast 455 524 35,000  Level FlightAware ADS-B
03:13PM 37.4029 -83.9727 61° Northeast 454 522 35,000  Level FlightAware ADS-B
03:14PM 37.4538 -83.8580 61° Northeast 453 521 35,000  Level FlightAware ADS-B
03:15PM 37.4877 -83.7817 61° Northeast 454 522 35,000  Level FlightAware ADS-B
03:15PM 37.5196 -83.7095 61° Northeast 453 521 35,000  Level FlightAware ADS-B
03:16PM 37.5515 -83.6371 61° Northeast 453 521 35,000  Level FlightAware ADS-B
03:16PM 37.5833 -83.5648 61° Northeast 453 521 35,000  Level FlightAware ADS-B
03:17PM 37.6296 -83.4590 61° Northeast 453 521 35,000  Level FlightAware ADS-B
03:18PM 37.6654 -83.3772 61° Northeast 453 521 35,000  Level FlightAware ADS-B
03:18PM 37.6959 -83.3075 61° Northeast 452 520 35,000  Level FlightAware ADS-B
03:19PM 37.7281 -83.2334 61° Northeast 452 520 35,000  Level FlightAware ADS-B
03:19PM 37.7616 -83.1562 61° Northeast 452 520 35,000  Level FlightAware ADS-B
03:20PM 37.7920 -83.0858 61° Northeast 452 520 35,000  Level FlightAware ADS-B
03:20PM 37.8256 -83.0081 61° Northeast 452 520 35,000  Level FlightAware ADS-B
03:21PM 37.8580 -82.9340 61° Northeast 451 519 35,000  Level FlightAware
03:22PM 37.9005 -82.8341 62° Northeast 452 520 35,000  Level FlightAware ADS-B
03:22PM 37.9345 -82.7549 61° Northeast 451 519 35,000  Level FlightAware ADS-B
03:23PM 37.9669 -82.6789 62° Northeast 450 518 35,000  Level FlightAware ADS-B
03:23PM 37.9986 -82.6048 61° Northeast 450 518 35,000  Level FlightAware ADS-B
03:24PM 38.0184 -82.5476 66° East 448 516 35,000  Level FlightAware ADS-B
03:24PM 38.0303 -82.4827 77° East 449 517 35,000  Level FlightAware ADS-B
03:25PM 38.0438 -82.3909 79° East 449 517 35,000  Level FlightAware ADS-B
03:25PM 38.0567 -82.3003 80° East 449 517 35,000  Level FlightAware ADS-B
03:26PM 38.0680 -82.2220 80° East 449 517 35,000  Level FlightAware
03:26PM 38.0736 -82.1808 80° East 449 517 35,000  Level FlightAware ADS-B
03:27PM 38.0848 -82.1016 80° East 450 518 35,000  Level FlightAware ADS-B
03:27PM 38.0966 -82.0170 80° East 451 519 35,000  Level FlightAware ADS-B
03:28PM 38.1081 -81.9343 80° East 452 520 35,000  Level FlightAware ADS-B
03:28PM 38.1250 -81.8124 80° East 452 520 35,000  Level FlightAware ADS-B
03:29PM 38.1400 -81.7060 80° East 452 520 35,000  Level FlightAware
03:30PM 38.1510 -81.6200 81° East 453 521 35,000 -600 Level FlightAware
03:31PM 38.1700 -81.4820 80° East 465 535 34,200 -960 Descending FlightAware
03:31PM 38.1820 -81.3930 80° East 466 536 33,700 -660 Descending FlightAware
03:32PM 38.2020 -81.2460 80° East 467 537 33,200 -480 Descending FlightAware
03:33PM 38.2140 -81.1510 81° East 455 524 33,000 -180 Descending FlightAware
03:33PM 38.2300 -81.0330 80° East 450 518 33,000  Level FlightAware
03:34PM 38.2420 -80.9340 81° East 448 516 33,000  Level FlightAware
03:35PM 38.2570 -80.8220 80° East 449 517 33,000  Level FlightAware
03:35PM 38.2720 -80.7060 81° East 451 519 33,000  Level FlightAware
03:36PM 38.2860 -80.5950 81° East 452 520 33,000  Level FlightAware
03:37PM 38.2990 -80.4960 80° East 453 521 33,000  Level FlightAware
03:38PM 38.3160 -80.3770 80° East 454 522 33,000 -120 Level FlightAware
03:38PM 38.3280 -80.2850 81° East 456 525 32,900 -840 Descending FlightAware
03:39PM 38.3410 -80.1780 81° East 471 542 32,000 -1,680 Descending FlightAware
03:39PM 38.3560 -80.0560 81° East 472 543 30,600 -1,920 Descending FlightAware
03:40PM 38.3690 -79.9480 81° East 470 541 29,400 -1,920 Descending FlightAware
03:41PM 38.3800 -79.8380 83° East 465 535 28,100 -1,800 Descending FlightAware
03:41PM 38.3900 -79.7330 83° East 450 518 27,000 -1,740 Descending FlightAware
03:42PM 38.3990 -79.6340 83° East 437 503 25,900 -900 Descending FlightAware
03:43PM 38.4120 -79.5500 79° East 437 503 25,900 -1,680 Level FlightAware
03:43PM 38.4490 -79.4860 54° Northeast 416 479 24,100 -1,680 Descending FlightAware
03:44PM 38.5070 -79.4110 45° Northeast 385 443 24,000 -60 Descending FlightAware
03:45PM 38.5500 -79.2860 66° East 379 436 24,000  Level FlightAware
03:46PM 38.5700 -79.2230 68° East 379 436 24,000 -1,380 Level FlightAware
03:46PM 38.5810 -79.0810 84° East 387 445 22,100 -2,040 Descending FlightAware
03:47PM 38.5960 -78.9970 77° East 367 422 21,100 -1,260 Descending FlightAware
03:48PM 38.6090 -78.9180 78° East 362 417 20,500 -720 Descending FlightAware
03:49PM 38.6310 -78.8010 76° East 361 415 20,000 -360 Descending FlightAware
03:49PM 38.6520 -78.7120 73° East 358 412 20,000 -720 Level FlightAware
03:50PM 38.6610 -78.6750 73° East 360 414 19,100 -2,940 Descending FlightAware
03:51PM 38.6940 -78.5340 73° East 352 405 15,700 -3,720 Descending FlightAware
03:52PM 38.7170 -78.4380 73° East 332 382 12,600 -3,480 Descending FlightAware
03:53PM 38.7480 -78.3540 65° Northeast 301 346 9,900 -2,280 Descending FlightAware
03:53PM 38.7740 -78.3180 47° Northeast 283 326 9,700 -120 Descending FlightAware
03:53PM 38.8000 -78.2820 47° Northeast 283 326 9,800  Climbing FlightAware
03:54PM 38.8260 -78.2460 47° Northeast 290 334 9,700  Descending FlightAware
03:54PM 38.8500 -78.2080 51° Northeast 290 334 9,800  Climbing FlightAware
03:55PM 38.8610 -78.1780 65° Northeast 292 336 9,700 -180 Descending FlightAware
03:55PM 38.8710 -78.1390 72° East 288 331 9,700 -300 Level FlightAware
03:55PM 38.8790 -78.1090 71° East 290 334 9,500 -1,440 Descending FlightAware
03:56PM 38.8900 -78.0650 72° East 292 336 8,600 -1,860 Descending FlightAware
03:56PM 38.9000 -78.0230 73° East 289 333 7,800 -2,040 Descending FlightAware
03:56PM 38.9040 -78.0090 70° East 287 330 7,500 -2,280 Descending FlightAware
03:57PM 38.9170 -77.9540 73° East 284 327 6,300 -1,500 Descending FlightAware
03:58PM 38.9320 -77.8940 72° East 256 295 5,700 -480 Descending FlightAware
03:58PM 38.9440 -77.8480 71° East 260 299 5,800 60 Climbing FlightAware
03:59PM 38.9520 -77.8150 73° East 265 305 5,800  Level FlightAware
03:59PM 38.9580 -77.7910 72° East 265 305 5,800  Level FlightAware
03:59PM 38.9630 -77.7450 82° East 272 313 5,800  Level FlightAware
04:00PM 38.9580 -77.6890 97° East 272 313 5,800  Level FlightAware
04:00PM 38.9520 -77.6450 100° East 268 308 5,800  Level FlightAware
04:01PM 38.9370 -77.6210 129° Southeast 261 300 5,800  Level FlightAware
04:01PM 38.9110 -77.6030 152° Southeast 250 288 5,800  Level FlightAware
04:02PM 38.8860 -77.5900 158° South 252 290 5,800  Level FlightAware
04:02PM 38.8620 -77.5790 160° South 253 291 5,800 -360 Level FlightAware
04:02PM 38.8420 -77.5750 171° South 250 288 5,600 -960 Descending FlightAware
04:03PM 38.8070 -77.5760 181° South 248 285 5,100 -1,020 Descending FlightAware
04:03PM 38.7830 -77.5690 167° South 247 284 4,700 -1,080 Descending FlightAware
04:04PM 38.7710 -77.5300 112° Southeast 240 276 4,200 -1,080 Descending FlightAware
04:04PM 38.7720 -77.4890 88° East 229 264 3,700 -900 Descending FlightAware
04:04PM 38.7790 -77.4790 48° Northeast 222 255 3,600 -1,020 Descending FlightAware
04:05PM 38.7970 -77.4650 31° Northeast 219 252 3,200 -1,440 Descending FlightAware
04:05PM 38.8070 -77.4630 North 219 252 2,900 -1,680 Descending FlightAware
04:05PM 38.8190 -77.4610 North 215 247 2,500 -1,620 Descending FlightAware
04:05PM 38.8340 -77.4610 360° North 200 230 2,100 -1,200 Descending FlightAware
04:06PM 38.8590 -77.4610 360° North 168 193 1,600 -960 Descending FlightAware
04:06PM 38.8840 -77.4610 360° North 161 185 1,000 -540 Descending FlightAware
04:07PM 38.9000 -77.4600 North 161 185 1,000  Level FlightAware
04:14PM 38.9333 -77.4500 159° South  Level FlightAware Approximate
04:15PM 38.9474 -77.4599 159° South  Level Estimated
04:16PM 38.9474 -77.4599 159° South  Level Estimated
04:17PM 38.9474 -77.4599 159° South  Level Estimated